createdAt,value
2022-10-19T00:02:44.569Z,62.30
2022-10-19T00:05:31.955Z,61.90
2022-10-19T00:08:19.170Z,62.00
2022-10-19T00:11:06.669Z,61.80
2022-10-19T00:13:54.325Z,61.80
2022-10-19T00:16:42.184Z,61.70
2022-10-19T00:19:30.530Z,61.80
2022-10-19T00:22:17.757Z,61.80
2022-10-19T00:25:05.469Z,61.70
2022-10-19T00:27:52.394Z,61.60
2022-10-19T00:30:39.661Z,61.50
2022-10-19T00:33:26.857Z,61.40
2022-10-19T00:36:21.947Z,61.30
2022-10-19T00:39:13.342Z,61.30
2022-10-19T00:42:00.675Z,61.30
2022-10-19T00:45:07.673Z,61.50
2022-10-19T00:47:55.224Z,61.00
2022-10-19T00:50:43.080Z,61.50
2022-10-19T00:53:32.621Z,61.50
2022-10-19T00:56:20.413Z,61.20
2022-10-19T00:59:09.243Z,61.30
2022-10-19T01:01:56.632Z,61.10
2022-10-19T01:04:50.129Z,61.10
2022-10-19T01:07:37.534Z,60.70
2022-10-19T01:10:36.002Z,61.10
2022-10-19T01:13:37.879Z,60.60
2022-10-19T01:16:36.660Z,60.80
2022-10-19T01:20:10.065Z,60.80
2022-10-19T01:23:25.251Z,60.80
2022-10-19T01:26:31.793Z,60.70
2022-10-19T01:29:30.894Z,60.70
2022-10-19T01:32:26.123Z,60.90
2022-10-19T01:35:22.838Z,60.80
2022-10-19T01:38:24.515Z,61.00
2022-10-19T01:41:18.269Z,60.90
2022-10-19T01:44:15.447Z,61.00
2022-10-19T01:47:07.528Z,61.10
2022-10-19T01:50:01.961Z,61.10
2022-10-19T01:52:51.596Z,61.20
2022-10-19T01:55:43.613Z,61.30
2022-10-19T01:58:34.177Z,61.30
2022-10-19T02:01:22.951Z,61.50
2022-10-19T02:04:11.453Z,61.60
2022-10-19T02:07:00.799Z,61.60
2022-10-19T02:09:48.156Z,61.50
2022-10-19T02:12:36.997Z,61.50
2022-10-19T02:15:28.386Z,61.60
2022-10-19T02:18:21.156Z,61.60
2022-10-19T02:21:10.640Z,61.60
2022-10-19T02:23:59.015Z,61.50
2022-10-19T02:26:46.234Z,61.50
2022-10-19T02:29:34.609Z,61.40
2022-10-19T02:32:22.206Z,61.30
2022-10-19T02:35:10.685Z,61.40
2022-10-19T02:38:03.411Z,61.50
2022-10-19T02:40:59.746Z,61.60
2022-10-19T02:43:51.618Z,61.70
2022-10-19T02:46:45.212Z,61.80
2022-10-19T02:49:35.682Z,61.80
2022-10-19T02:52:22.841Z,62.00
2022-10-19T02:55:10.647Z,61.90
2022-10-19T02:57:59.216Z,62.10
2022-10-19T03:00:46.715Z,62.00
2022-10-19T03:03:33.776Z,62.10
2022-10-19T03:06:21.532Z,62.30
2022-10-19T03:09:09.008Z,62.60
2022-10-19T03:11:57.371Z,62.40
2022-10-19T03:14:46.068Z,63.20
2022-10-19T03:17:33.456Z,62.30
2022-10-19T03:20:21.079Z,62.30
2022-10-19T03:23:08.627Z,62.30
2022-10-19T03:25:55.776Z,62.30
2022-10-19T03:28:43.398Z,62.10
2022-10-19T03:31:32.026Z,62.10
2022-10-19T03:34:19.608Z,62.00
2022-10-19T03:37:06.562Z,62.00
2022-10-19T03:39:53.874Z,62.00
2022-10-19T03:42:41.002Z,62.00
2022-10-19T03:45:28.086Z,61.90
2022-10-19T03:48:16.620Z,61.80
2022-10-19T03:51:06.239Z,61.40
2022-10-19T03:53:55.035Z,61.40
2022-10-19T03:56:42.963Z,61.30
2022-10-19T03:59:30.364Z,61.40
2022-10-19T04:02:17.668Z,61.30
2022-10-19T04:05:08.124Z,61.40
2022-10-19T04:07:55.401Z,61.30
2022-10-19T04:10:42.316Z,61.40
2022-10-19T04:13:30.262Z,61.40
2022-10-19T04:16:18.518Z,61.40
2022-10-19T04:19:06.762Z,61.30
2022-10-19T04:21:55.509Z,61.30
2022-10-19T04:24:42.904Z,61.30
2022-10-19T04:27:30.257Z,61.20
2022-10-19T04:30:17.779Z,61.20
2022-10-19T04:33:05.072Z,61.20
2022-10-19T04:35:52.428Z,61.00
2022-10-19T04:38:40.965Z,61.00
2022-10-19T04:41:28.287Z,61.00
2022-10-19T04:44:15.673Z,61.00
2022-10-19T04:47:03.041Z,61.00
2022-10-19T04:49:50.183Z,60.90
2022-10-19T04:52:37.410Z,60.70
2022-10-19T04:55:26.244Z,60.80
2022-10-19T04:58:13.364Z,60.70
2022-10-19T05:01:00.544Z,60.90
2022-10-19T05:03:48.516Z,60.90
2022-10-19T05:06:35.699Z,60.90
2022-10-19T05:09:22.885Z,60.80
2022-10-19T05:12:11.316Z,60.70
2022-10-19T05:14:58.369Z,60.10
2022-10-19T05:17:45.740Z,60.40
2022-10-19T05:20:32.731Z,60.00
2022-10-19T05:23:19.799Z,60.00
2022-10-19T05:26:09.354Z,60.00
2022-10-19T05:29:01.959Z,60.00
2022-10-19T05:31:49.505Z,60.00
2022-10-19T05:34:36.771Z,60.20
2022-10-19T05:37:25.727Z,60.30
2022-10-19T05:40:13.466Z,60.00
2022-10-19T05:43:00.708Z,60.00
2022-10-19T05:45:49.149Z,59.70
2022-10-19T05:48:36.808Z,60.50
2022-10-19T05:51:26.162Z,59.70
2022-10-19T05:54:14.154Z,59.70
2022-10-19T05:57:01.403Z,59.80
2022-10-19T05:59:48.307Z,59.80
2022-10-19T06:02:36.618Z,59.70
2022-10-19T06:05:05.757Z,59.60
2022-10-19T06:07:34.669Z,59.40
2022-10-19T06:10:03.419Z,59.50
2022-10-19T06:12:31.985Z,59.60
2022-10-19T06:15:00.571Z,59.50
2022-10-19T06:17:30.293Z,59.40
2022-10-19T06:20:00.295Z,59.30
2022-10-19T06:22:28.926Z,59.30
2022-10-19T06:24:57.536Z,59.40
2022-10-19T06:27:26.261Z,59.40
2022-10-19T06:29:55.209Z,59.50
2022-10-19T06:32:23.962Z,59.70
2022-10-19T06:34:56.423Z,59.70
2022-10-19T06:37:26.742Z,59.80
2022-10-19T06:39:55.492Z,59.90
2022-10-19T06:42:24.114Z,60.00
2022-10-19T06:44:52.649Z,60.00
2022-10-19T06:47:21.275Z,60.00
2022-10-19T06:49:49.829Z,60.00
2022-10-19T06:52:18.525Z,60.00
2022-10-19T06:54:48.546Z,60.10
2022-10-19T06:57:17.190Z,60.00
2022-10-19T06:59:48.051Z,60.20
2022-10-19T07:02:18.040Z,60.20
2022-10-19T07:04:46.665Z,60.00
2022-10-19T07:07:15.380Z,60.00
2022-10-19T07:09:44.080Z,60.20
2022-10-19T07:12:14.038Z,60.20
2022-10-19T07:14:42.719Z,60.40
2022-10-19T07:17:12.938Z,60.40
2022-10-19T07:19:41.573Z,60.50
2022-10-19T07:22:10.160Z,60.50
2022-10-19T07:24:38.746Z,60.70
2022-10-19T07:27:07.345Z,60.70
2022-10-19T07:29:37.859Z,60.80
2022-10-19T07:32:06.809Z,60.80
2022-10-19T07:34:35.426Z,61.00
2022-10-19T07:37:04.034Z,61.00
2022-10-19T07:39:32.767Z,61.10
2022-10-19T07:42:01.342Z,61.20
2022-10-19T07:44:29.995Z,61.20
2022-10-19T07:46:59.971Z,61.20
2022-10-19T07:49:28.812Z,61.20
2022-10-19T07:51:57.468Z,61.20
2022-10-19T07:54:27.458Z,61.20
2022-10-19T07:56:56.063Z,61.30
2022-10-19T07:59:24.684Z,61.30
2022-10-19T08:01:54.634Z,61.20
2022-10-19T08:04:55.913Z,61.20
2022-10-19T08:07:13.816Z,61.20
2022-10-19T08:09:57.790Z,61.10
2022-10-19T08:12:26.486Z,61.20
2022-10-19T08:14:55.378Z,61.50
2022-10-19T08:17:24.047Z,61.60
2022-10-19T08:19:54.057Z,61.70
2022-10-19T08:22:22.775Z,61.70
2022-10-19T08:24:51.414Z,61.60
2022-10-19T08:27:20.045Z,61.80
2022-10-19T08:29:48.712Z,61.70
2022-10-19T08:32:17.359Z,61.80
2022-10-19T08:34:46.289Z,62.80
2022-10-19T08:37:25.707Z,62.00
2022-10-19T08:40:01.528Z,62.00
2022-10-19T08:42:43.917Z,61.90
2022-10-19T08:45:31.922Z,61.80
2022-10-19T08:48:16.845Z,61.80
2022-10-19T08:50:48.732Z,61.60
2022-10-19T08:53:25.350Z,61.60
2022-10-19T08:56:06.762Z,61.60
2022-10-19T08:58:52.259Z,61.70
2022-10-19T09:01:39.627Z,62.60
2022-10-19T09:04:16.552Z,61.60
2022-10-19T09:07:08.709Z,61.80
2022-10-19T09:12:26.147Z,61.70
2022-10-19T09:15:00.792Z,61.80
2022-10-19T09:17:30.165Z,61.90
2022-10-19T09:19:59.877Z,61.90
2022-10-19T09:22:34.297Z,62.00
2022-10-19T09:25:13.820Z,61.90
2022-10-19T09:27:45.668Z,61.70
2022-10-19T09:30:21.216Z,61.70
2022-10-19T09:32:53.344Z,61.70
2022-10-19T09:35:31.567Z,61.60
2022-10-19T09:38:00.622Z,61.30
2022-10-19T09:40:32.142Z,61.20
2022-10-19T09:43:08.800Z,60.90
2022-10-19T09:45:46.115Z,61.00
2022-10-19T09:48:21.985Z,60.80
2022-10-19T09:50:56.974Z,60.80
2022-10-19T09:53:26.715Z,60.80
2022-10-19T09:56:06.209Z,60.80
2022-10-19T09:58:36.139Z,60.80
2022-10-19T10:01:05.172Z,60.90
2022-10-19T10:03:36.351Z,61.00
2022-10-19T10:06:08.323Z,61.10
2022-10-19T10:08:41.816Z,61.10
2022-10-19T10:11:14.874Z,61.40
2022-10-19T10:13:49.724Z,61.60
2022-10-19T10:16:20.143Z,61.70
2022-10-19T10:18:55.688Z,61.70
2022-10-19T10:21:27.128Z,61.60
2022-10-19T10:24:06.756Z,61.60
2022-10-19T10:26:43.343Z,61.30
2022-10-19T10:29:21.272Z,61.30
2022-10-19T10:31:52.784Z,61.40
2022-10-19T10:37:27.285Z,61.30
2022-10-19T10:40:03.613Z,61.40
2022-10-19T10:42:39.171Z,61.40
2022-10-19T10:45:19.918Z,61.40
2022-10-19T10:47:49.929Z,61.20
2022-10-19T10:50:23.687Z,61.20
2022-10-19T10:53:05.167Z,60.90
2022-10-19T10:55:35.111Z,60.80
2022-10-19T10:58:21.233Z,60.90
2022-10-19T11:00:52.804Z,60.40
2022-10-19T11:03:28.904Z,60.50
2022-10-19T11:06:00.724Z,60.20
2022-10-19T11:08:39.928Z,60.50
2022-10-19T11:11:16.563Z,60.20
2022-10-19T11:13:54.433Z,60.60
2022-10-19T11:16:28.631Z,60.70
2022-10-19T11:19:03.958Z,60.60
2022-10-19T11:21:38.437Z,60.70
2022-10-19T11:24:17.017Z,60.70
2022-10-19T11:27:11.400Z,60.50
2022-10-19T11:29:57.831Z,60.20
2022-10-19T11:32:36.673Z,60.00
2022-10-19T11:35:24.831Z,60.00
2022-10-19T11:38:19.447Z,60.20
2022-10-19T11:41:16.809Z,60.20
2022-10-19T11:44:05.889Z,60.30
2022-10-19T11:46:45.722Z,60.30
2022-10-19T11:49:30.666Z,60.30
2022-10-19T11:52:08.337Z,60.10
2022-10-19T11:54:52.553Z,60.00
2022-10-19T11:57:25.548Z,59.90
2022-10-19T12:00:14.964Z,60.00
2022-10-19T12:03:22.682Z,59.80
2022-10-19T12:06:04.715Z,59.80
2022-10-19T12:08:55.373Z,59.70
2022-10-19T12:11:41.152Z,59.60
2022-10-19T12:14:17.776Z,59.60
2022-10-19T12:16:51.671Z,59.70
2022-10-19T12:19:26.315Z,59.80
2022-10-19T12:21:59.922Z,60.40
2022-10-19T12:24:30.946Z,59.70
2022-10-19T12:27:00.983Z,59.70
2022-10-19T12:29:33.750Z,59.70
2022-10-19T12:32:04.971Z,59.50
2022-10-19T12:34:43.014Z,59.50
2022-10-19T12:37:19.591Z,59.40
2022-10-19T12:39:57.464Z,59.50
2022-10-19T12:42:31.205Z,59.50
2022-10-19T12:45:25.358Z,60.10
2022-10-19T12:48:24.715Z,59.50
2022-10-19T12:51:19.649Z,59.60
2022-10-19T12:53:50.246Z,59.70
2022-10-19T12:56:23.734Z,59.80
2022-10-19T12:58:56.862Z,59.80
2022-10-19T13:01:29.455Z,59.80
2022-10-19T13:04:14.260Z,59.50
2022-10-19T13:06:47.443Z,59.40
2022-10-19T13:09:29.104Z,59.40
2022-10-19T13:12:30.479Z,59.10
2022-10-19T13:15:01.599Z,59.10
2022-10-19T13:17:43.986Z,59.80
2022-10-19T13:20:53.403Z,59.00
2022-10-19T13:23:42.882Z,59.10
2022-10-19T13:26:33.927Z,59.20
2022-10-19T13:29:03.236Z,59.20
2022-10-19T13:31:37.518Z,59.30
2022-10-19T13:34:12.579Z,59.20
2022-10-19T13:37:00.403Z,59.10
2022-10-19T13:39:31.514Z,59.10
2022-10-19T13:42:00.469Z,58.90
2022-10-19T13:44:35.510Z,58.80
2022-10-19T13:50:33.626Z,58.40
2022-10-19T13:53:29.949Z,58.30
2022-10-19T13:56:28.552Z,58.10
2022-10-19T13:59:50.375Z,58.10
2022-10-19T14:02:43.845Z,58.10
2022-10-19T14:05:42.582Z,58.10
2022-10-19T14:08:29.848Z,58.10
2022-10-19T14:11:04.416Z,58.20
2022-10-19T14:13:34.453Z,58.40
2022-10-19T14:16:03.268Z,58.50
2022-10-19T14:18:34.557Z,58.60
2022-10-19T14:21:08.263Z,58.60
2022-10-19T14:23:39.884Z,58.60
2022-10-19T14:26:15.249Z,58.70
2022-10-19T14:28:45.527Z,58.60
2022-10-19T14:31:23.292Z,58.50
2022-10-19T14:33:54.284Z,58.50
2022-10-19T14:36:26.873Z,58.50
2022-10-19T14:38:57.660Z,58.40
2022-10-19T14:44:38.606Z,58.20
2022-10-19T14:47:22.891Z,58.10
2022-10-19T14:49:52.187Z,57.90
2022-10-19T14:55:12.651Z,57.70
2022-10-19T14:57:47.630Z,57.80
2022-10-19T15:00:21.788Z,57.80
2022-10-19T15:02:59.581Z,57.80
2022-10-19T15:05:37.492Z,57.70
2022-10-19T15:08:12.420Z,57.80
2022-10-19T15:10:45.782Z,57.70
2022-10-19T15:13:25.185Z,57.80
2022-10-19T15:15:56.495Z,57.70
2022-10-19T15:18:48.351Z,57.90
2022-10-19T15:21:20.963Z,58.00
2022-10-19T15:23:51.184Z,58.00
2022-10-19T15:26:22.774Z,58.20
2022-10-19T15:28:55.858Z,58.30
2022-10-19T15:31:30.217Z,58.40
2022-10-19T15:34:02.379Z,58.40
2022-10-19T15:36:32.841Z,58.40
2022-10-19T15:39:24.513Z,58.50
2022-10-19T15:41:54.448Z,58.50
2022-10-19T15:44:41.465Z,58.50
2022-10-19T15:47:26.936Z,58.40
2022-10-19T15:50:03.020Z,59.10
2022-10-19T15:52:34.826Z,58.40
2022-10-19T15:55:04.051Z,58.50
2022-10-19T15:57:35.308Z,58.50
2022-10-19T16:00:13.610Z,58.60
2022-10-19T16:02:43.662Z,58.50
2022-10-19T16:05:12.305Z,58.50
2022-10-19T16:07:42.788Z,58.50
2022-10-19T16:10:17.618Z,58.50
2022-10-19T16:12:46.352Z,58.40
2022-10-19T16:15:16.543Z,58.50
2022-10-19T16:17:47.629Z,58.50
2022-10-19T16:20:17.607Z,58.50
2022-10-19T16:22:47.762Z,58.40
2022-10-19T16:25:17.160Z,58.40
2022-10-19T16:27:45.823Z,58.40
2022-10-19T16:30:17.992Z,58.40
2022-10-19T16:32:49.707Z,58.40
2022-10-19T16:35:18.683Z,58.30
2022-10-19T16:37:47.425Z,58.40
2022-10-19T16:40:16.173Z,58.40
2022-10-19T16:42:44.746Z,58.40
2022-10-19T16:45:13.862Z,58.40
2022-10-19T16:47:42.481Z,58.40
2022-10-19T16:50:13.079Z,58.30
2022-10-19T16:52:41.665Z,58.30
2022-10-19T16:55:10.499Z,58.30
2022-10-19T16:57:39.205Z,58.40
2022-10-19T17:00:10.168Z,58.40
2022-10-19T17:02:41.984Z,58.40
2022-10-19T17:05:14.657Z,58.40
2022-10-19T17:07:43.255Z,58.30
2022-10-19T17:10:12.237Z,58.40
2022-10-19T17:12:41.650Z,58.30
2022-10-19T17:18:01.858Z,58.30
2022-10-19T17:20:33.262Z,58.30
2022-10-19T17:23:02.013Z,58.30
2022-10-19T17:25:30.752Z,58.30
2022-10-19T17:27:59.410Z,58.30
2022-10-19T17:30:28.339Z,58.30
2022-10-19T17:32:56.928Z,58.30
2022-10-19T17:35:25.518Z,58.30
2022-10-19T17:37:55.544Z,58.20
2022-10-19T17:40:24.187Z,58.20
2022-10-19T17:42:52.757Z,58.20
2022-10-19T17:45:21.405Z,58.20
2022-10-19T17:47:50.001Z,58.40
2022-10-19T17:50:18.679Z,58.20
2022-10-19T17:52:47.295Z,58.10
2022-10-19T17:55:19.765Z,58.10
2022-10-19T17:57:48.391Z,58.00
2022-10-19T18:00:17.536Z,58.10
2022-10-19T18:02:46.814Z,58.10
2022-10-19T18:05:15.688Z,58.00
2022-10-19T18:07:45.848Z,58.10
2022-10-19T18:10:15.539Z,58.70
2022-10-19T18:12:45.625Z,58.00
2022-10-19T18:15:14.256Z,58.00
2022-10-19T18:17:43.139Z,57.90
2022-10-19T18:20:13.098Z,57.90
2022-10-19T18:25:11.649Z,57.70
2022-10-19T18:27:40.225Z,57.70
2022-10-19T18:30:11.693Z,57.70
2022-10-19T18:32:40.347Z,57.60
2022-10-19T18:35:10.397Z,57.60
2022-10-19T18:37:39.083Z,57.50
2022-10-19T18:40:10.440Z,57.50
2022-10-19T18:42:39.076Z,57.50
2022-10-19T18:45:10.784Z,57.60
2022-10-19T18:47:39.546Z,57.70
2022-10-19T18:50:08.758Z,57.60
2022-10-19T18:52:39.310Z,57.60
2022-10-19T18:55:09.396Z,57.60
2022-10-19T18:57:38.029Z,57.60
2022-10-19T19:00:09.706Z,57.60
2022-10-19T19:02:46.323Z,57.50
2022-10-19T19:05:16.000Z,57.50
2022-10-19T19:07:44.583Z,57.50
2022-10-19T19:10:14.443Z,58.10
2022-10-19T19:12:44.230Z,57.50
2022-10-19T19:15:14.259Z,57.40
2022-10-19T19:17:42.925Z,57.20
2022-10-19T19:20:12.069Z,57.40
2022-10-19T19:22:40.698Z,57.20
2022-10-19T19:25:09.976Z,57.30
2022-10-19T19:30:13.678Z,57.50
2022-10-19T19:32:42.561Z,57.20
2022-10-19T19:35:11.356Z,57.10
2022-10-19T19:37:40.021Z,57.30
2022-10-19T19:40:10.442Z,57.10
2022-10-19T19:42:39.021Z,57.00
2022-10-19T19:45:09.286Z,57.10
2022-10-19T19:47:39.217Z,57.00
2022-10-19T19:50:09.639Z,57.00
2022-10-19T19:52:40.564Z,57.00
2022-10-19T19:55:09.971Z,56.90
2022-10-19T19:57:38.665Z,57.10
2022-10-19T20:00:09.061Z,57.30
2022-10-19T20:02:41.476Z,57.20
2022-10-19T20:05:29.236Z,57.20
2022-10-19T20:08:16.692Z,57.20
2022-10-19T20:11:06.037Z,57.10
2022-10-19T20:13:53.295Z,57.00
2022-10-19T20:16:40.890Z,57.00
2022-10-19T20:19:29.868Z,57.00
2022-10-19T20:22:16.978Z,57.10
2022-10-19T20:25:04.781Z,57.10
2022-10-19T20:27:51.917Z,57.10
2022-10-19T20:30:39.088Z,57.10
2022-10-19T20:33:26.168Z,57.20
2022-10-19T20:36:18.781Z,57.00
2022-10-19T20:39:06.006Z,57.00
2022-10-19T20:41:53.842Z,57.00
2022-10-19T20:44:40.837Z,57.10
2022-10-19T20:47:27.863Z,57.60
2022-10-19T20:50:17.012Z,57.00
2022-10-19T20:53:09.358Z,57.00
2022-10-19T20:55:56.723Z,57.60
2022-10-19T20:58:45.145Z,57.00
2022-10-19T21:01:33.942Z,56.90
2022-10-19T21:04:21.292Z,57.00
2022-10-19T21:07:08.774Z,56.90
2022-10-19T21:09:57.363Z,57.00
2022-10-19T21:12:44.541Z,56.80
2022-10-19T21:15:31.864Z,57.00
2022-10-19T21:18:19.266Z,57.10
2022-10-19T21:21:18.455Z,57.00
2022-10-19T21:24:07.879Z,56.90
2022-10-19T21:26:56.683Z,57.00
2022-10-19T21:29:43.773Z,57.00
2022-10-19T21:32:30.822Z,57.00
2022-10-19T21:35:17.978Z,57.00
2022-10-19T21:38:05.368Z,57.00
2022-10-19T21:40:52.550Z,56.90
2022-10-19T21:43:41.165Z,56.80
2022-10-19T21:46:28.475Z,56.80
2022-10-19T21:49:15.629Z,56.80
2022-10-19T21:52:02.768Z,56.90
2022-10-19T21:54:49.807Z,56.70
2022-10-19T21:57:37.326Z,56.70
2022-10-19T22:00:25.831Z,56.50
2022-10-19T22:06:05.159Z,56.70
2022-10-19T22:08:52.600Z,56.60
2022-10-19T22:11:39.585Z,56.60
2022-10-19T22:14:26.929Z,56.70
2022-10-19T22:17:15.572Z,56.70
2022-10-19T22:20:02.876Z,56.60
2022-10-19T22:22:52.774Z,56.60
2022-10-19T22:25:42.252Z,56.50
2022-10-19T22:28:29.982Z,56.50
2022-10-19T22:31:17.637Z,56.50
2022-10-19T22:34:08.903Z,56.50
2022-10-19T22:36:55.971Z,56.40
2022-10-19T22:39:43.270Z,56.50
2022-10-19T22:42:30.525Z,56.50
2022-10-19T22:45:18.318Z,56.50
2022-10-19T22:48:06.098Z,56.60
2022-10-19T22:50:56.170Z,56.60
2022-10-19T22:53:43.206Z,56.50
2022-10-19T22:56:31.977Z,56.60
2022-10-19T22:59:19.088Z,56.30
2022-10-19T23:02:06.401Z,56.50
2022-10-19T23:04:53.666Z,56.50
2022-10-19T23:07:42.377Z,56.40
2022-10-19T23:10:29.970Z,56.30
2022-10-19T23:13:17.316Z,56.30
2022-10-19T23:16:05.285Z,56.30
2022-10-19T23:18:52.702Z,56.20
2022-10-19T23:21:39.691Z,56.30
2022-10-19T23:24:28.302Z,56.30
2022-10-19T23:27:15.879Z,56.30
2022-10-19T23:30:04.429Z,56.40
2022-10-19T23:32:51.469Z,56.50
2022-10-19T23:35:38.405Z,56.30
2022-10-19T23:38:25.390Z,56.40
2022-10-19T23:41:14.457Z,56.20
2022-10-19T23:44:01.493Z,56.20
2022-10-19T23:46:48.613Z,56.20
2022-10-19T23:49:35.792Z,56.30
2022-10-19T23:52:22.898Z,56.00
2022-10-19T23:55:10.824Z,56.10
2022-10-19T23:57:59.489Z,56.20
